sensor_id;sensor_type;location;lat;lon;timestamp;temperature;humidity
16744;DHT22;71724;-33.900;151.182;2024-02-14T00:01:13;28.00;62.70
16744;DHT22;71724;-33.900;151.182;2024-02-14T00:03:41;28.00;62.90
16744;DHT22;71724;-33.900;151.182;2024-02-14T00:06:08;28.00;62.70
16744;DHT22;71724;-33.900;151.182;2024-02-14T00:08:38;28.00;63.00
16744;DHT22;71724;-33.900;151.182;2024-02-14T00:11:06;28.10;63.00
16744;DHT22;71724;-33.900;151.182;2024-02-14T00:13:33;28.20;63.10
16744;DHT22;71724;-33.900;151.182;2024-02-14T00:16:01;28.20;62.80
16744;DHT22;71724;-33.900;151.182;2024-02-14T00:18:31;28.20;63.20
16744;DHT22;71724;-33.900;151.182;2024-02-14T00:20:58;28.30;62.80
16744;DHT22;71724;-33.900;151.182;2024-02-14T00:23:25;28.30;62.70
16744;DHT22;71724;-33.900;151.182;2024-02-14T00:25:53;28.30;62.70
16744;DHT22;71724;-33.900;151.182;2024-02-14T00:28:20;28.30;62.90
16744;DHT22;71724;-33.900;151.182;2024-02-14T00:30:50;28.40;61.90
16744;DHT22;71724;-33.900;151.182;2024-02-14T00:33:17;28.50;61.60
16744;DHT22;71724;-33.900;151.182;2024-02-14T00:35:46;28.70;61.70
16744;DHT22;71724;-33.900;151.182;2024-02-14T00:38:14;28.80;61.20
16744;DHT22;71724;-33.900;151.182;2024-02-14T00:40:41;28.90;60.50
16744;DHT22;71724;-33.900;151.182;2024-02-14T00:43:08;28.90;59.00
16744;DHT22;71724;-33.900;151.182;2024-02-14T00:45:36;28.90;56.60
16744;DHT22;71724;-33.900;151.182;2024-02-14T00:48:05;28.90;58.10
16744;DHT22;71724;-33.900;151.182;2024-02-14T00:50:33;29.00;58.10
16744;DHT22;71724;-33.900;151.182;2024-02-14T00:53:04;29.00;57.80
16744;DHT22;71724;-33.900;151.182;2024-02-14T00:55:32;29.00;57.60
16744;DHT22;71724;-33.900;151.182;2024-02-14T00:57:59;29.00;57.20
16744;DHT22;71724;-33.900;151.182;2024-02-14T01:00:26;29.00;56.80
16744;DHT22;71724;-33.900;151.182;2024-02-14T01:02:53;29.00;57.90
16744;DHT22;71724;-33.900;151.182;2024-02-14T01:05:22;29.10;57.20
16744;DHT22;71724;-33.900;151.182;2024-02-14T01:07:50;29.00;58.00
16744;DHT22;71724;-33.900;151.182;2024-02-14T01:10:17;29.00;58.90
16744;DHT22;71724;-33.900;151.182;2024-02-14T01:12:45;29.00;59.70
16744;DHT22;71724;-33.900;151.182;2024-02-14T01:15:12;29.00;60.20
16744;DHT22;71724;-33.900;151.182;2024-02-14T01:17:39;28.90;60.70
16744;DHT22;71724;-33.900;151.182;2024-02-14T01:20:08;28.80;60.90
16744;DHT22;71724;-33.900;151.182;2024-02-14T01:22:36;28.80;61.40
16744;DHT22;71724;-33.900;151.182;2024-02-14T01:25:04;28.80;61.70
16744;DHT22;71724;-33.900;151.182;2024-02-14T01:27:32;28.80;61.90
16744;DHT22;71724;-33.900;151.182;2024-02-14T01:30:00;28.80;62.20
16744;DHT22;71724;-33.900;151.182;2024-02-14T01:32:27;28.70;62.50
16744;DHT22;71724;-33.900;151.182;2024-02-14T01:34:56;28.70;61.80
16744;DHT22;71724;-33.900;151.182;2024-02-14T01:37:23;28.50;60.90
16744;DHT22;71724;-33.900;151.182;2024-02-14T01:39:51;28.50;61.60
16744;DHT22;71724;-33.900;151.182;2024-02-14T01:42:18;28.40;61.70
16744;DHT22;71724;-33.900;151.182;2024-02-14T01:44:47;28.40;62.20
16744;DHT22;71724;-33.900;151.182;2024-02-14T01:47:14;28.50;62.40
16744;DHT22;71724;-33.900;151.182;2024-02-14T01:49:42;28.50;62.40
16744;DHT22;71724;-33.900;151.182;2024-02-14T01:52:11;28.60;61.10
16744;DHT22;71724;-33.900;151.182;2024-02-14T01:54:38;28.60;60.30
16744;DHT22;71724;-33.900;151.182;2024-02-14T01:57:06;28.60;58.60
16744;DHT22;71724;-33.900;151.182;2024-02-14T01:59:35;28.50;59.00
16744;DHT22;71724;-33.900;151.182;2024-02-14T02:02:03;28.60;59.10
16744;DHT22;71724;-33.900;151.182;2024-02-14T02:04:33;28.50;60.70
16744;DHT22;71724;-33.900;151.182;2024-02-14T02:07:01;28.40;61.60
16744;DHT22;71724;-33.900;151.182;2024-02-14T02:09:30;28.30;62.70
16744;DHT22;71724;-33.900;151.182;2024-02-14T02:11:58;28.30;63.50
16744;DHT22;71724;-33.900;151.182;2024-02-14T02:14:27;28.10;64.10
16744;DHT22;71724;-33.900;151.182;2024-02-14T02:16:54;28.10;64.50
16744;DHT22;71724;-33.900;151.182;2024-02-14T02:19:21;28.00;63.90
16744;DHT22;71724;-33.900;151.182;2024-02-14T02:21:49;27.90;64.80
16744;DHT22;71724;-33.900;151.182;2024-02-14T02:24:16;27.90;65.40
16744;DHT22;71724;-33.900;151.182;2024-02-14T02:26:44;27.90;65.40
16744;DHT22;71724;-33.900;151.182;2024-02-14T02:29:12;27.80;65.80
16744;DHT22;71724;-33.900;151.182;2024-02-14T02:31:39;27.80;66.70
16744;DHT22;71724;-33.900;151.182;2024-02-14T02:34:06;27.80;66.90
16744;DHT22;71724;-33.900;151.182;2024-02-14T02:36:37;27.80;67.10
16744;DHT22;71724;-33.900;151.182;2024-02-14T02:39:06;27.80;67.50
16744;DHT22;71724;-33.900;151.182;2024-02-14T02:41:34;27.80;68.20
16744;DHT22;71724;-33.900;151.182;2024-02-14T02:44:01;27.70;68.50
16744;DHT22;71724;-33.900;151.182;2024-02-14T02:46:29;27.80;69.10
16744;DHT22;71724;-33.900;151.182;2024-02-14T02:48:57;27.80;69.70
16744;DHT22;71724;-33.900;151.182;2024-02-14T02:51:31;27.80;69.70
16744;DHT22;71724;-33.900;151.182;2024-02-14T02:53:59;27.80;69.60
16744;DHT22;71724;-33.900;151.182;2024-02-14T02:56:26;27.80;70.20
16744;DHT22;71724;-33.900;151.182;2024-02-14T02:58:55;27.80;70.50
16744;DHT22;71724;-33.900;151.182;2024-02-14T03:01:22;27.80;70.00
16744;DHT22;71724;-33.900;151.182;2024-02-14T03:03:55;27.80;70.10
16744;DHT22;71724;-33.900;151.182;2024-02-14T03:06:25;27.70;69.70
16744;DHT22;71724;-33.900;151.182;2024-02-14T03:08:53;27.50;70.50
16744;DHT22;71724;-33.900;151.182;2024-02-14T03:11:23;27.30;70.90
16744;DHT22;71724;-33.900;151.182;2024-02-14T03:13:52;27.20;71.20
16744;DHT22;71724;-33.900;151.182;2024-02-14T03:16:19;27.10;71.20
16744;DHT22;71724;-33.900;151.182;2024-02-14T03:18:47;27.10;71.30
16744;DHT22;71724;-33.900;151.182;2024-02-14T03:21:14;27.10;71.30
16744;DHT22;71724;-33.900;151.182;2024-02-14T03:23:42;27.10;70.60
16744;DHT22;71724;-33.900;151.182;2024-02-14T03:26:12;27.00;70.50
16744;DHT22;71724;-33.900;151.182;2024-02-14T03:28:40;26.90;71.10
16744;DHT22;71724;-33.900;151.182;2024-02-14T03:31:07;26.90;71.30
16744;DHT22;71724;-33.900;151.182;2024-02-14T03:33:42;26.90;71.30
16744;DHT22;71724;-33.900;151.182;2024-02-14T03:36:10;26.90;70.20
16744;DHT22;71724;-33.900;151.182;2024-02-14T03:38:41;26.90;70.40
16744;DHT22;71724;-33.900;151.182;2024-02-14T03:41:09;26.80;70.50
16744;DHT22;71724;-33.900;151.182;2024-02-14T03:43:38;26.80;70.50
16744;DHT22;71724;-33.900;151.182;2024-02-14T03:46:07;26.80;70.50
16744;DHT22;71724;-33.900;151.182;2024-02-14T03:48:34;26.80;70.30
16744;DHT22;71724;-33.900;151.182;2024-02-14T03:51:02;26.90;70.50
16744;DHT22;71724;-33.900;151.182;2024-02-14T03:53:29;26.80;69.30
16744;DHT22;71724;-33.900;151.182;2024-02-14T03:56:00;26.70;69.20
16744;DHT22;71724;-33.900;151.182;2024-02-14T03:58:28;26.50;69.90
16744;DHT22;71724;-33.900;151.182;2024-02-14T04:00:55;26.50;70.40
16744;DHT22;71724;-33.900;151.182;2024-02-14T04:03:23;26.50;70.00
16744;DHT22;71724;-33.900;151.182;2024-02-14T04:05:50;26.40;70.10
16744;DHT22;71724;-33.900;151.182;2024-02-14T04:08:17;26.30;70.00
16744;DHT22;71724;-33.900;151.182;2024-02-14T04:10:45;26.30;70.20
16744;DHT22;71724;-33.900;151.182;2024-02-14T04:13:12;26.30;70.20
16744;DHT22;71724;-33.900;151.182;2024-02-14T04:15:42;26.20;70.30
16744;DHT22;71724;-33.900;151.182;2024-02-14T04:18:10;26.20;70.40
16744;DHT22;71724;-33.900;151.182;2024-02-14T04:20:37;26.10;69.90
16744;DHT22;71724;-33.900;151.182;2024-02-14T04:23:05;26.10;70.20
16744;DHT22;71724;-33.900;151.182;2024-02-14T04:25:36;26.10;70.80
16744;DHT22;71724;-33.900;151.182;2024-02-14T04:28:04;26.10;70.80
16744;DHT22;71724;-33.900;151.182;2024-02-14T04:30:31;26.10;70.80
16744;DHT22;71724;-33.900;151.182;2024-02-14T04:32:58;26.10;70.70
16744;DHT22;71724;-33.900;151.182;2024-02-14T04:35:28;26.00;70.90
16744;DHT22;71724;-33.900;151.182;2024-02-14T04:37:55;26.10;71.10
16744;DHT22;71724;-33.900;151.182;2024-02-14T04:40:24;26.10;71.00
16744;DHT22;71724;-33.900;151.182;2024-02-14T04:42:51;26.20;71.10
16744;DHT22;71724;-33.900;151.182;2024-02-14T04:45:19;26.20;71.20
16744;DHT22;71724;-33.900;151.182;2024-02-14T04:47:46;26.20;70.80
16744;DHT22;71724;-33.900;151.182;2024-02-14T04:50:13;26.20;70.60
16744;DHT22;71724;-33.900;151.182;2024-02-14T04:52:41;26.10;70.70
16744;DHT22;71724;-33.900;151.182;2024-02-14T04:55:09;26.00;71.20
16744;DHT22;71724;-33.900;151.182;2024-02-14T04:57:37;25.90;71.10
16744;DHT22;71724;-33.900;151.182;2024-02-14T05:00:05;25.90;71.60
16744;DHT22;71724;-33.900;151.182;2024-02-14T05:02:35;25.80;71.30
16744;DHT22;71724;-33.900;151.182;2024-02-14T05:05:03;25.70;71.70
16744;DHT22;71724;-33.900;151.182;2024-02-14T05:07:31;25.60;71.90
16744;DHT22;71724;-33.900;151.182;2024-02-14T05:09:59;25.50;71.90
16744;DHT22;71724;-33.900;151.182;2024-02-14T05:12:27;25.40;72.10
16744;DHT22;71724;-33.900;151.182;2024-02-14T05:14:54;25.30;72.40
16744;DHT22;71724;-33.900;151.182;2024-02-14T05:17:22;25.30;72.20
16744;DHT22;71724;-33.900;151.182;2024-02-14T05:19:50;25.30;72.50
16744;DHT22;71724;-33.900;151.182;2024-02-14T05:22:17;25.20;72.20
16744;DHT22;71724;-33.900;151.182;2024-02-14T05:24:44;25.20;72.40
16744;DHT22;71724;-33.900;151.182;2024-02-14T05:27:12;25.20;72.10
16744;DHT22;71724;-33.900;151.182;2024-02-14T05:29:40;25.20;72.20
16744;DHT22;71724;-33.900;151.182;2024-02-14T05:32:08;25.30;71.80
16744;DHT22;71724;-33.900;151.182;2024-02-14T05:34:38;25.30;72.00
16744;DHT22;71724;-33.900;151.182;2024-02-14T05:37:05;25.20;71.80
16744;DHT22;71724;-33.900;151.182;2024-02-14T05:39:32;25.10;72.30
16744;DHT22;71724;-33.900;151.182;2024-02-14T05:42:00;25.00;72.40
16744;DHT22;71724;-33.900;151.182;2024-02-14T05:44:28;25.00;72.50
16744;DHT22;71724;-33.900;151.182;2024-02-14T05:46:56;24.80;72.60
16744;DHT22;71724;-33.900;151.182;2024-02-14T05:49:24;24.80;72.90
16744;DHT22;71724;-33.900;151.182;2024-02-14T05:51:51;24.70;73.10
16744;DHT22;71724;-33.900;151.182;2024-02-14T05:54:20;24.60;73.80
16744;DHT22;71724;-33.900;151.182;2024-02-14T05:56:48;24.50;74.30
16744;DHT22;71724;-33.900;151.182;2024-02-14T05:59:16;24.40;74.60
16744;DHT22;71724;-33.900;151.182;2024-02-14T06:01:44;24.50;75.00
16744;DHT22;71724;-33.900;151.182;2024-02-14T06:04:11;24.50;75.30
16744;DHT22;71724;-33.900;151.182;2024-02-14T06:06:38;24.40;75.80
16744;DHT22;71724;-33.900;151.182;2024-02-14T06:09:06;24.30;76.10
16744;DHT22;71724;-33.900;151.182;2024-02-14T06:11:37;24.30;76.30
16744;DHT22;71724;-33.900;151.182;2024-02-14T06:14:09;24.30;76.60
16744;DHT22;71724;-33.900;151.182;2024-02-14T06:16:36;24.30;76.60
16744;DHT22;71724;-33.900;151.182;2024-02-14T06:19:04;24.30;76.30
16744;DHT22;71724;-33.900;151.182;2024-02-14T06:21:32;24.30;75.90
16744;DHT22;71724;-33.900;151.182;2024-02-14T06:24:01;24.20;75.40
16744;DHT22;71724;-33.900;151.182;2024-02-14T06:26:31;24.20;76.10
16744;DHT22;71724;-33.900;151.182;2024-02-14T06:28:59;24.00;75.80
16744;DHT22;71724;-33.900;151.182;2024-02-14T06:31:27;24.00;76.10
16744;DHT22;71724;-33.900;151.182;2024-02-14T06:33:54;23.90;75.70
16744;DHT22;71724;-33.900;151.182;2024-02-14T06:36:22;23.80;76.10
16744;DHT22;71724;-33.900;151.182;2024-02-14T06:38:52;23.80;76.40
16744;DHT22;71724;-33.900;151.182;2024-02-14T06:41:19;23.80;76.80
16744;DHT22;71724;-33.900;151.182;2024-02-14T06:43:47;23.80;77.00
16744;DHT22;71724;-33.900;151.182;2024-02-14T06:46:16;23.80;77.20
16744;DHT22;71724;-33.900;151.182;2024-02-14T06:48:43;23.80;77.20
16744;DHT22;71724;-33.900;151.182;2024-02-14T06:51:11;23.80;77.10
16744;DHT22;71724;-33.900;151.182;2024-02-14T06:53:39;23.80;77.10
16744;DHT22;71724;-33.900;151.182;2024-02-14T06:56:07;23.70;77.40
16744;DHT22;71724;-33.900;151.182;2024-02-14T06:58:34;23.70;77.50
16744;DHT22;71724;-33.900;151.182;2024-02-14T07:01:06;23.60;78.00
16744;DHT22;71724;-33.900;151.182;2024-02-14T07:06:32;23.50;78.50
16744;DHT22;71724;-33.900;151.182;2024-02-14T07:08:59;23.40;78.50
16744;DHT22;71724;-33.900;151.182;2024-02-14T07:11:28;23.30;79.20
16744;DHT22;71724;-33.900;151.182;2024-02-14T07:13:55;23.40;80.70
16744;DHT22;71724;-33.900;151.182;2024-02-14T07:16:26;23.30;81.30
16744;DHT22;71724;-33.900;151.182;2024-02-14T07:18:53;23.30;81.60
16744;DHT22;71724;-33.900;151.182;2024-02-14T07:21:22;23.20;82.00
16744;DHT22;71724;-33.900;151.182;2024-02-14T07:23:51;23.10;82.30
16744;DHT22;71724;-33.900;151.182;2024-02-14T07:26:23;23.00;82.60
16744;DHT22;71724;-33.900;151.182;2024-02-14T07:28:51;22.90;83.00
16744;DHT22;71724;-33.900;151.182;2024-02-14T07:31:19;22.80;83.00
16744;DHT22;71724;-33.900;151.182;2024-02-14T07:33:46;22.80;83.50
16744;DHT22;71724;-33.900;151.182;2024-02-14T07:36:14;22.70;83.80
16744;DHT22;71724;-33.900;151.182;2024-02-14T07:38:42;22.60;83.90
16744;DHT22;71724;-33.900;151.182;2024-02-14T07:41:10;22.50;84.10
16744;DHT22;71724;-33.900;151.182;2024-02-14T07:43:37;22.50;84.30
16744;DHT22;71724;-33.900;151.182;2024-02-14T07:46:04;22.30;84.40
16744;DHT22;71724;-33.900;151.182;2024-02-14T07:48:33;22.20;85.00
16744;DHT22;71724;-33.900;151.182;2024-02-14T07:51:01;22.20;85.00
16744;DHT22;71724;-33.900;151.182;2024-02-14T07:53:30;22.10;85.30
16744;DHT22;71724;-33.900;151.182;2024-02-14T07:55:59;22.10;85.70
16744;DHT22;71724;-33.900;151.182;2024-02-14T07:58:26;22.20;85.80
16744;DHT22;71724;-33.900;151.182;2024-02-14T08:00:53;22.20;85.70
16744;DHT22;71724;-33.900;151.182;2024-02-14T08:03:21;22.20;85.70
16744;DHT22;71724;-33.900;151.182;2024-02-14T08:05:48;22.30;85.60
16744;DHT22;71724;-33.900;151.182;2024-02-14T08:08:16;22.20;85.60
16744;DHT22;71724;-33.900;151.182;2024-02-14T08:10:43;22.20;85.20
16744;DHT22;71724;-33.900;151.182;2024-02-14T08:13:12;22.20;85.50
16744;DHT22;71724;-33.900;151.182;2024-02-14T08:15:42;22.10;85.50
16744;DHT22;71724;-33.900;151.182;2024-02-14T08:18:09;22.20;85.70
16744;DHT22;71724;-33.900;151.182;2024-02-14T08:20:37;22.20;85.60
16744;DHT22;71724;-33.900;151.182;2024-02-14T08:23:04;22.20;85.80
16744;DHT22;71724;-33.900;151.182;2024-02-14T08:25:31;22.20;85.70
16744;DHT22;71724;-33.900;151.182;2024-02-14T08:27:59;22.20;85.50
16744;DHT22;71724;-33.900;151.182;2024-02-14T08:30:26;22.10;85.60
16744;DHT22;71724;-33.900;151.182;2024-02-14T08:32:54;22.00;85.70
16744;DHT22;71724;-33.900;151.182;2024-02-14T08:35:25;22.00;85.70
16744;DHT22;71724;-33.900;151.182;2024-02-14T08:37:52;22.00;85.70
16744;DHT22;71724;-33.900;151.182;2024-02-14T08:40:20;21.90;85.70
16744;DHT22;71724;-33.900;151.182;2024-02-14T08:42:48;21.90;85.50
16744;DHT22;71724;-33.900;151.182;2024-02-14T08:45:15;21.90;85.80
16744;DHT22;71724;-33.900;151.182;2024-02-14T08:47:45;21.80;85.70
16744;DHT22;71724;-33.900;151.182;2024-02-14T08:50:13;21.80;85.50
16744;DHT22;71724;-33.900;151.182;2024-02-14T08:52:40;21.80;85.50
16744;DHT22;71724;-33.900;151.182;2024-02-14T08:55:08;21.70;85.90
16744;DHT22;71724;-33.900;151.182;2024-02-14T08:57:41;21.80;86.10
16744;DHT22;71724;-33.900;151.182;2024-02-14T09:00:09;21.70;86.00
16744;DHT22;71724;-33.900;151.182;2024-02-14T09:02:39;21.80;86.20
16744;DHT22;71724;-33.900;151.182;2024-02-14T09:05:07;21.70;86.00
16744;DHT22;71724;-33.900;151.182;2024-02-14T09:07:36;21.70;86.30
16744;DHT22;71724;-33.900;151.182;2024-02-14T09:10:03;21.70;86.30
16744;DHT22;71724;-33.900;151.182;2024-02-14T09:12:32;21.70;86.40
16744;DHT22;71724;-33.900;151.182;2024-02-14T09:15:01;21.70;86.50
16744;DHT22;71724;-33.900;151.182;2024-02-14T09:17:31;21.70;86.40
16744;DHT22;71724;-33.900;151.182;2024-02-14T09:19:58;21.70;86.50
16744;DHT22;71724;-33.900;151.182;2024-02-14T09:22:27;21.60;86.50
16744;DHT22;71724;-33.900;151.182;2024-02-14T09:24:57;21.60;86.40
16744;DHT22;71724;-33.900;151.182;2024-02-14T09:27:24;21.60;86.40
16744;DHT22;71724;-33.900;151.182;2024-02-14T09:29:52;21.60;86.60
16744;DHT22;71724;-33.900;151.182;2024-02-14T09:32:19;21.60;86.70
16744;DHT22;71724;-33.900;151.182;2024-02-14T09:34:46;21.60;86.80
16744;DHT22;71724;-33.900;151.182;2024-02-14T09:37:15;21.70;86.90
16744;DHT22;71724;-33.900;151.182;2024-02-14T09:39:43;21.70;86.60
16744;DHT22;71724;-33.900;151.182;2024-02-14T09:42:14;21.70;86.50
16744;DHT22;71724;-33.900;151.182;2024-02-14T09:44:46;21.70;86.60
16744;DHT22;71724;-33.900;151.182;2024-02-14T09:47:15;21.70;86.50
16744;DHT22;71724;-33.900;151.182;2024-02-14T09:49:43;21.60;86.50
16744;DHT22;71724;-33.900;151.182;2024-02-14T09:52:15;21.70;86.50
16744;DHT22;71724;-33.900;151.182;2024-02-14T09:54:44;21.60;86.30
16744;DHT22;71724;-33.900;151.182;2024-02-14T09:57:17;21.60;86.70
16744;DHT22;71724;-33.900;151.182;2024-02-14T09:59:48;21.70;86.60
16744;DHT22;71724;-33.900;151.182;2024-02-14T10:02:16;21.60;86.40
16744;DHT22;71724;-33.900;151.182;2024-02-14T10:04:44;21.60;86.50
16744;DHT22;71724;-33.900;151.182;2024-02-14T10:07:14;21.60;86.60
16744;DHT22;71724;-33.900;151.182;2024-02-14T10:09:43;21.70;86.70
16744;DHT22;71724;-33.900;151.182;2024-02-14T10:12:12;21.60;86.40
16744;DHT22;71724;-33.900;151.182;2024-02-14T10:14:39;21.60;86.50
16744;DHT22;71724;-33.900;151.182;2024-02-14T10:17:16;21.70;86.50
16744;DHT22;71724;-33.900;151.182;2024-02-14T10:19:58;21.70;86.50
16744;DHT22;71724;-33.900;151.182;2024-02-14T10:22:35;21.60;86.40
16744;DHT22;71724;-33.900;151.182;2024-02-14T10:25:04;21.50;86.40
16744;DHT22;71724;-33.900;151.182;2024-02-14T10:27:39;21.50;86.50
16744;DHT22;71724;-33.900;151.182;2024-02-14T10:30:08;21.50;86.60
16744;DHT22;71724;-33.900;151.182;2024-02-14T10:32:42;21.50;86.90
16744;DHT22;71724;-33.900;151.182;2024-02-14T10:35:16;21.50;86.90
16744;DHT22;71724;-33.900;151.182;2024-02-14T10:37:45;21.50;86.70
16744;DHT22;71724;-33.900;151.182;2024-02-14T10:40:15;21.50;86.60
16744;DHT22;71724;-33.900;151.182;2024-02-14T10:42:45;21.50;86.50
16744;DHT22;71724;-33.900;151.182;2024-02-14T10:45:14;21.40;86.70
16744;DHT22;71724;-33.900;151.182;2024-02-14T10:47:43;21.50;86.80
16744;DHT22;71724;-33.900;151.182;2024-02-14T10:50:14;21.40;86.70
16744;DHT22;71724;-33.900;151.182;2024-02-14T10:52:44;21.40;86.60
16744;DHT22;71724;-33.900;151.182;2024-02-14T10:55:14;21.50;86.70
16744;DHT22;71724;-33.900;151.182;2024-02-14T10:57:44;21.50;86.50
16744;DHT22;71724;-33.900;151.182;2024-02-14T11:00:15;21.40;86.20
16744;DHT22;71724;-33.900;151.182;2024-02-14T11:02:45;21.40;86.40
16744;DHT22;71724;-33.900;151.182;2024-02-14T11:05:14;21.40;86.40
16744;DHT22;71724;-33.900;151.182;2024-02-14T11:07:45;21.30;86.20
16744;DHT22;71724;-33.900;151.182;2024-02-14T11:10:20;21.20;86.00
16744;DHT22;71724;-33.900;151.182;2024-02-14T11:12:49;21.30;86.40
16744;DHT22;71724;-33.900;151.182;2024-02-14T11:15:24;21.30;86.30
16744;DHT22;71724;-33.900;151.182;2024-02-14T11:18:05;21.30;86.50
16744;DHT22;71724;-33.900;151.182;2024-02-14T11:20:39;21.30;86.50
16744;DHT22;71724;-33.900;151.182;2024-02-14T11:23:12;21.30;86.40
16744;DHT22;71724;-33.900;151.182;2024-02-14T11:25:47;21.30;86.70
16744;DHT22;71724;-33.900;151.182;2024-02-14T11:28:16;21.30;86.70
16744;DHT22;71724;-33.900;151.182;2024-02-14T11:30:44;21.30;86.60
16744;DHT22;71724;-33.900;151.182;2024-02-14T11:33:21;21.40;86.40
16744;DHT22;71724;-33.900;151.182;2024-02-14T11:35:53;21.40;86.20
16744;DHT22;71724;-33.900;151.182;2024-02-14T11:38:25;21.40;86.20
16744;DHT22;71724;-33.900;151.182;2024-02-14T11:40:56;21.40;86.20
16744;DHT22;71724;-33.900;151.182;2024-02-14T11:43:23;21.40;86.20
16744;DHT22;71724;-33.900;151.182;2024-02-14T11:45:51;21.50;86.20
16744;DHT22;71724;-33.900;151.182;2024-02-14T11:48:19;21.50;86.10
16744;DHT22;71724;-33.900;151.182;2024-02-14T11:50:54;21.50;86.20
16744;DHT22;71724;-33.900;151.182;2024-02-14T11:53:22;21.50;86.20
16744;DHT22;71724;-33.900;151.182;2024-02-14T11:55:50;21.50;86.20
16744;DHT22;71724;-33.900;151.182;2024-02-14T11:58:18;21.60;86.10
16744;DHT22;71724;-33.900;151.182;2024-02-14T12:00:46;21.50;85.90
16744;DHT22;71724;-33.900;151.182;2024-02-14T12:03:20;21.50;85.50
16744;DHT22;71724;-33.900;151.182;2024-02-14T12:05:49;21.50;85.50
16744;DHT22;71724;-33.900;151.182;2024-02-14T12:08:17;21.50;85.60
16744;DHT22;71724;-33.900;151.182;2024-02-14T12:10:45;21.50;85.60
16744;DHT22;71724;-33.900;151.182;2024-02-14T12:13:21;21.50;85.70
16744;DHT22;71724;-33.900;151.182;2024-02-14T12:15:50;21.50;85.30
16744;DHT22;71724;-33.900;151.182;2024-02-14T12:18:20;21.50;85.40
16744;DHT22;71724;-33.900;151.182;2024-02-14T12:20:47;21.40;85.50
16744;DHT22;71724;-33.900;151.182;2024-02-14T12:23:19;21.40;85.70
16744;DHT22;71724;-33.900;151.182;2024-02-14T12:25:48;21.30;85.70
16744;DHT22;71724;-33.900;151.182;2024-02-14T12:28:19;21.30;85.80
16744;DHT22;71724;-33.900;151.182;2024-02-14T12:30:50;21.30;85.90
16744;DHT22;71724;-33.900;151.182;2024-02-14T12:33:24;21.30;85.90
16744;DHT22;71724;-33.900;151.182;2024-02-14T12:35:53;21.40;86.10
16744;DHT22;71724;-33.900;151.182;2024-02-14T12:38:21;21.40;86.10
16744;DHT22;71724;-33.900;151.182;2024-02-14T12:40:50;21.40;86.10
16744;DHT22;71724;-33.900;151.182;2024-02-14T12:43:20;21.40;86.10
16744;DHT22;71724;-33.900;151.182;2024-02-14T12:45:48;21.50;86.10
16744;DHT22;71724;-33.900;151.182;2024-02-14T12:48:23;21.50;86.00
16744;DHT22;71724;-33.900;151.182;2024-02-14T12:50:53;21.40;85.70
16744;DHT22;71724;-33.900;151.182;2024-02-14T12:53:21;21.40;85.60
16744;DHT22;71724;-33.900;151.182;2024-02-14T12:55:48;21.40;85.30
16744;DHT22;71724;-33.900;151.182;2024-02-14T12:58:16;21.30;85.50
16744;DHT22;71724;-33.900;151.182;2024-02-14T13:00:43;21.30;85.40
16744;DHT22;71724;-33.900;151.182;2024-02-14T13:03:11;21.30;85.30
16744;DHT22;71724;-33.900;151.182;2024-02-14T13:05:41;21.30;85.20
16744;DHT22;71724;-33.900;151.182;2024-02-14T13:08:08;21.30;85.30
16744;DHT22;71724;-33.900;151.182;2024-02-14T13:10:39;21.30;85.20
16744;DHT22;71724;-33.900;151.182;2024-02-14T13:13:06;21.40;85.30
16744;DHT22;71724;-33.900;151.182;2024-02-14T13:15:33;21.30;85.00
16744;DHT22;71724;-33.900;151.182;2024-02-14T13:18:01;21.30;85.10
16744;DHT22;71724;-33.900;151.182;2024-02-14T13:20:29;21.30;85.10
16744;DHT22;71724;-33.900;151.182;2024-02-14T13:22:57;21.30;85.20
16744;DHT22;71724;-33.900;151.182;2024-02-14T13:25:25;21.30;85.20
16744;DHT22;71724;-33.900;151.182;2024-02-14T13:27:52;21.30;85.20
16744;DHT22;71724;-33.900;151.182;2024-02-14T13:30:21;21.20;85.00
16744;DHT22;71724;-33.900;151.182;2024-02-14T13:32:49;21.20;85.00
16744;DHT22;71724;-33.900;151.182;2024-02-14T13:35:16;21.20;85.30
16744;DHT22;71724;-33.900;151.182;2024-02-14T13:37:44;21.20;85.50
16744;DHT22;71724;-33.900;151.182;2024-02-14T13:40:11;21.20;85.20
16744;DHT22;71724;-33.900;151.182;2024-02-14T13:42:39;21.20;85.10
16744;DHT22;71724;-33.900;151.182;2024-02-14T13:45:07;21.20;85.10
16744;DHT22;71724;-33.900;151.182;2024-02-14T13:47:38;21.20;85.30
16744;DHT22;71724;-33.900;151.182;2024-02-14T13:50:07;21.20;85.40
16744;DHT22;71724;-33.900;151.182;2024-02-14T13:52:35;21.30;85.80
16744;DHT22;71724;-33.900;151.182;2024-02-14T13:55:03;21.30;85.40
16744;DHT22;71724;-33.900;151.182;2024-02-14T13:57:38;21.30;85.10
16744;DHT22;71724;-33.900;151.182;2024-02-14T14:00:09;21.30;85.00
16744;DHT22;71724;-33.900;151.182;2024-02-14T14:02:38;21.30;84.90
16744;DHT22;71724;-33.900;151.182;2024-02-14T14:05:11;21.30;84.60
16744;DHT22;71724;-33.900;151.182;2024-02-14T14:07:39;21.30;84.50
16744;DHT22;71724;-33.900;151.182;2024-02-14T14:10:10;21.30;84.80
16744;DHT22;71724;-33.900;151.182;2024-02-14T14:12:38;21.30;84.50
16744;DHT22;71724;-33.900;151.182;2024-02-14T14:15:06;21.30;84.70
16744;DHT22;71724;-33.900;151.182;2024-02-14T14:17:35;21.30;85.00
16744;DHT22;71724;-33.900;151.182;2024-02-14T14:20:03;21.30;84.50
16744;DHT22;71724;-33.900;151.182;2024-02-14T14:22:30;21.40;84.60
16744;DHT22;71724;-33.900;151.182;2024-02-14T14:24:58;21.30;84.20
16744;DHT22;71724;-33.900;151.182;2024-02-14T14:27:45;21.40;84.50
16744;DHT22;71724;-33.900;151.182;2024-02-14T14:30:43;21.30;84.20
16744;DHT22;71724;-33.900;151.182;2024-02-14T14:33:11;21.40;84.10
16744;DHT22;71724;-33.900;151.182;2024-02-14T14:35:38;21.40;84.20
16744;DHT22;71724;-33.900;151.182;2024-02-14T14:38:05;21.40;84.10
16744;DHT22;71724;-33.900;151.182;2024-02-14T14:40:33;21.40;84.20
16744;DHT22;71724;-33.900;151.182;2024-02-14T14:43:00;21.30;84.30
16744;DHT22;71724;-33.900;151.182;2024-02-14T14:45:28;21.40;84.80
16744;DHT22;71724;-33.900;151.182;2024-02-14T14:47:55;21.50;84.60
16744;DHT22;71724;-33.900;151.182;2024-02-14T14:50:22;21.50;84.10
16744;DHT22;71724;-33.900;151.182;2024-02-14T14:52:52;21.50;84.30
16744;DHT22;71724;-33.900;151.182;2024-02-14T14:55:19;21.60;84.00
16744;DHT22;71724;-33.900;151.182;2024-02-14T14:57:47;21.60;83.80
16744;DHT22;71724;-33.900;151.182;2024-02-14T15:00:14;21.60;83.60